createdAt,value
2023-02-24T00:00:38.480Z,2.73
2023-02-24T00:05:42.810Z,2.67
2023-02-24T00:10:44.517Z,2.71
2023-02-24T00:15:46.111Z,2.73
2023-02-24T00:20:48.054Z,2.70
2023-02-24T00:25:57.906Z,2.63
2023-02-24T00:31:11.467Z,2.57
2023-02-24T00:36:24.692Z,2.46
2023-02-24T00:41:29.390Z,2.42
2023-02-24T00:46:31.593Z,2.40
2023-02-24T00:51:39.100Z,2.46
2023-02-24T00:56:45.317Z,2.47
2023-02-24T01:01:49.422Z,2.53
2023-02-24T01:07:00.118Z,2.63
2023-02-24T01:12:21.946Z,2.61
2023-02-24T01:17:23.683Z,2.52
2023-02-24T01:22:25.234Z,2.52
2023-02-24T01:27:26.814Z,2.54
2023-02-24T01:32:29.047Z,2.60
2023-02-24T01:37:30.715Z,2.67
2023-02-24T01:42:32.906Z,2.69
2023-02-24T01:47:34.434Z,2.64
2023-02-24T01:52:37.546Z,2.68
2023-02-24T01:57:39.683Z,2.67
2023-02-24T02:02:45.767Z,2.61
2023-02-24T02:07:47.370Z,2.50
2023-02-24T02:12:51.287Z,2.46
2023-02-24T02:18:05.041Z,2.50
2023-02-24T02:23:35.603Z,2.60
2023-02-24T02:28:58.383Z,2.67
2023-02-24T02:34:33.405Z,2.60
2023-02-24T02:39:44.316Z,2.58
2023-02-24T02:45:14.568Z,2.57
2023-02-24T02:50:29.809Z,2.61
2023-02-24T02:55:53.461Z,2.66
2023-02-24T03:01:02.447Z,2.64
2023-02-24T03:06:14.588Z,2.70
2023-02-24T03:11:17.694Z,2.69
2023-02-24T03:16:23.114Z,2.75
2023-02-24T03:21:51.843Z,2.80
2023-02-24T03:27:23.090Z,2.83
2023-02-24T03:32:34.287Z,2.86
2023-02-24T03:37:36.920Z,2.83
2023-02-24T03:42:43.239Z,2.80
2023-02-24T03:47:47.576Z,2.79
2023-02-24T03:53:16.236Z,2.83
2023-02-24T03:58:21.328Z,2.84
2023-02-24T04:03:32.465Z,2.90
2023-02-24T04:08:53.801Z,2.85
2023-02-24T04:14:06.502Z,2.90
2023-02-24T04:19:14.300Z,2.90
2023-02-24T04:24:21.367Z,2.95
2023-02-24T04:29:25.704Z,2.95
2023-02-24T04:34:32.368Z,2.97
2023-02-24T04:39:38.389Z,3.02
2023-02-24T04:44:39.917Z,3.06
2023-02-24T04:49:41.395Z,3.12
2023-02-24T04:54:44.510Z,3.19
2023-02-24T04:59:46.933Z,3.32
2023-02-24T05:04:49.752Z,3.35
2023-02-24T05:09:51.303Z,3.35
2023-02-24T05:14:52.822Z,3.37
2023-02-24T05:20:12.882Z,3.44
2023-02-24T05:25:14.409Z,3.44
2023-02-24T05:30:15.973Z,3.46
2023-02-24T05:35:17.668Z,3.47
2023-02-24T05:40:20.844Z,3.51
2023-02-24T05:45:22.607Z,3.58
2023-02-24T05:50:26.474Z,3.59
2023-02-24T05:55:27.932Z,3.61
2023-02-24T06:00:29.460Z,3.62
2023-02-24T06:05:31.003Z,3.73
2023-02-24T06:10:34.360Z,3.73
2023-02-24T06:15:37.432Z,3.73
2023-02-24T06:20:39.250Z,3.74
2023-02-24T06:25:41.825Z,3.84
2023-02-24T06:30:43.399Z,3.88
2023-02-24T06:35:44.939Z,3.90
2023-02-24T06:40:47.512Z,3.90
2023-02-24T06:45:50.184Z,3.91
2023-02-24T06:50:51.887Z,3.81
2023-02-24T06:55:53.371Z,3.77
2023-02-24T07:00:57.785Z,3.77
2023-02-24T07:06:20.308Z,3.77
2023-02-24T07:11:22.154Z,3.78
2023-02-24T07:16:25.238Z,3.83
2023-02-24T07:21:30.178Z,3.89
2023-02-24T07:26:31.938Z,3.90
2023-02-24T07:31:34.530Z,3.92
2023-02-24T07:36:49.111Z,3.95
2023-02-24T07:41:53.242Z,4.00
2023-02-24T07:46:55.076Z,3.94
2023-02-24T07:51:57.997Z,3.92
2023-02-24T07:57:00.000Z,3.93
2023-02-24T08:02:04.753Z,3.99
2023-02-24T08:07:14.325Z,4.01
2023-02-24T08:12:21.612Z,3.93
2023-02-24T08:17:26.476Z,3.84
2023-02-24T08:22:35.983Z,3.79
2023-02-24T08:27:40.732Z,3.87
2023-02-24T08:32:46.928Z,4.01
2023-02-24T08:37:52.063Z,4.08
2023-02-24T08:42:53.554Z,4.08
2023-02-24T08:48:00.556Z,4.06
2023-02-24T08:53:02.076Z,4.16
2023-02-24T08:58:03.614Z,4.27
2023-02-24T09:03:08.291Z,4.35
2023-02-24T09:08:09.842Z,4.48
2023-02-24T09:13:12.237Z,4.36
2023-02-24T09:18:14.388Z,4.47
2023-02-24T09:23:20.200Z,4.61
2023-02-24T09:28:26.700Z,4.71
2023-02-24T09:33:29.800Z,4.79
2023-02-24T09:38:57.181Z,4.81
2023-02-24T09:44:07.604Z,4.77
2023-02-24T09:49:17.352Z,5.02
2023-02-24T09:54:24.660Z,5.19
2023-02-24T10:00:23.106Z,5.28
2023-02-24T10:05:38.464Z,5.36
2023-02-24T10:11:00.580Z,5.41
2023-02-24T10:16:07.136Z,5.49
2023-02-24T10:21:48.175Z,5.75
2023-02-24T10:27:01.210Z,6.02
2023-02-24T10:32:41.350Z,6.02
2023-02-24T10:37:43.023Z,5.96
2023-02-24T10:42:47.895Z,5.98
2023-02-24T10:47:57.857Z,6.45
2023-02-24T10:53:26.735Z,6.83
2023-02-24T10:58:53.282Z,7.03
2023-02-24T11:04:12.271Z,7.27
2023-02-24T11:09:29.217Z,7.32
2023-02-24T11:14:50.641Z,7.37
2023-02-24T11:20:18.015Z,7.77
2023-02-24T11:25:24.645Z,7.95
2023-02-24T11:30:46.148Z,7.92
2023-02-24T11:36:25.158Z,7.56
2023-02-24T11:41:41.060Z,7.45
2023-02-24T11:46:50.087Z,7.45
2023-02-24T11:51:53.218Z,7.41
2023-02-24T11:56:59.402Z,7.31
2023-02-24T12:02:19.129Z,7.28
2023-02-24T12:07:54.790Z,7.50
2023-02-24T12:13:11.180Z,7.66
2023-02-24T12:18:33.969Z,7.94
2023-02-24T12:23:44.609Z,8.33
2023-02-24T12:29:30.059Z,8.34
2023-02-24T12:34:47.468Z,8.04
2023-02-24T12:40:00.661Z,7.86
2023-02-24T12:45:19.834Z,6.91
2023-02-24T12:50:30.952Z,6.15
2023-02-24T12:55:50.656Z,5.86
2023-02-24T13:01:10.710Z,6.01
2023-02-24T13:06:20.715Z,6.29
2023-02-24T13:11:49.904Z,6.46
2023-02-24T13:16:51.584Z,6.80
2023-02-24T13:22:21.735Z,7.01
2023-02-24T13:27:29.253Z,6.80
2023-02-24T13:32:34.782Z,6.65
2023-02-24T13:37:41.228Z,6.63
2023-02-24T13:43:01.725Z,6.60
2023-02-24T13:48:36.980Z,6.92
2023-02-24T13:54:05.622Z,6.62
2023-02-24T13:59:44.823Z,6.47
2023-02-24T14:04:52.209Z,6.51
2023-02-24T14:10:00.390Z,6.71
2023-02-24T14:15:04.120Z,6.61
2023-02-24T14:20:08.932Z,6.50
2023-02-24T14:25:11.921Z,6.65
2023-02-24T14:30:40.156Z,6.70
2023-02-24T14:35:43.125Z,6.75
2023-02-24T14:40:48.898Z,6.81
2023-02-24T14:45:52.828Z,6.81
2023-02-24T14:51:02.718Z,6.81
2023-02-24T14:56:06.260Z,6.77
2023-02-24T15:01:30.485Z,6.61
2023-02-24T15:06:40.713Z,6.61
2023-02-24T15:11:43.738Z,6.57
2023-02-24T15:16:49.405Z,6.23
2023-02-24T15:21:50.972Z,5.88
2023-02-24T15:27:23.894Z,5.70
2023-02-24T15:32:27.711Z,5.70
2023-02-24T15:37:41.827Z,5.89
2023-02-24T15:42:50.741Z,6.07
2023-02-24T15:47:54.952Z,6.12
2023-02-24T15:52:59.566Z,6.04
2023-02-24T15:58:03.321Z,6.08
2023-02-24T16:03:04.949Z,6.17
2023-02-24T16:08:19.780Z,6.09
2023-02-24T16:13:23.916Z,5.70
2023-02-24T16:18:25.956Z,5.49
2023-02-24T16:23:27.555Z,5.44
2023-02-24T16:28:31.650Z,5.07
2023-02-24T16:33:48.019Z,4.95
2023-02-24T16:38:55.030Z,5.00
2023-02-24T16:43:56.521Z,5.09
2023-02-24T16:48:57.997Z,5.12
2023-02-24T16:53:59.516Z,5.04
2023-02-24T16:59:01.034Z,4.97
2023-02-24T17:04:05.214Z,4.86
2023-02-24T17:09:07.184Z,4.75
2023-02-24T17:14:16.964Z,4.82
2023-02-24T17:19:18.493Z,4.98
2023-02-24T17:24:21.604Z,5.04
2023-02-24T17:29:23.131Z,5.04
2023-02-24T17:34:24.650Z,4.97
2023-02-24T17:39:26.234Z,4.85
2023-02-24T17:44:28.113Z,4.82
2023-02-24T17:49:31.121Z,4.78
2023-02-24T17:54:33.044Z,4.75
2023-02-24T17:59:35.968Z,4.73
2023-02-24T18:04:37.742Z,4.69
2023-02-24T18:09:39.258Z,4.63
2023-02-24T18:14:40.854Z,4.72
2023-02-24T18:19:42.473Z,4.78
2023-02-24T18:24:44.073Z,4.94
2023-02-24T18:29:45.612Z,4.95
2023-02-24T18:34:47.132Z,4.97
2023-02-24T18:39:48.685Z,4.92
2023-02-24T18:44:50.186Z,4.95
2023-02-24T18:49:51.704Z,4.93
2023-02-24T18:54:53.201Z,4.96
2023-02-24T18:59:54.787Z,4.97
2023-02-24T19:04:56.387Z,4.98
2023-02-24T19:09:57.896Z,4.96
2023-02-24T19:14:59.421Z,4.90
2023-02-24T19:20:00.954Z,4.81
2023-02-24T19:25:02.508Z,4.71
2023-02-24T19:30:04.848Z,4.61
2023-02-24T19:35:07.641Z,4.56
2023-02-24T19:40:09.822Z,4.62
2023-02-24T19:45:11.420Z,4.60
2023-02-24T19:50:15.161Z,4.45
2023-02-24T19:55:16.702Z,4.33
2023-02-24T20:00:20.810Z,4.26
2023-02-24T20:05:22.788Z,4.29
2023-02-24T20:10:24.332Z,4.37
2023-02-24T20:15:25.821Z,4.44
2023-02-24T20:20:27.342Z,4.44
2023-02-24T20:25:29.042Z,4.37
2023-02-24T20:30:30.781Z,4.26
2023-02-24T20:35:32.401Z,4.22
2023-02-24T20:40:34.160Z,4.25
2023-02-24T20:45:38.068Z,4.32
2023-02-24T20:50:39.707Z,4.32
2023-02-24T20:55:41.267Z,4.34
2023-02-24T21:00:44.356Z,4.44
2023-02-24T21:05:45.887Z,4.40
2023-02-24T21:10:47.472Z,4.41
2023-02-24T21:15:53.557Z,4.42
2023-02-24T21:20:55.065Z,4.48
2023-02-24T21:25:56.661Z,4.42
2023-02-24T21:30:58.401Z,4.11
2023-02-24T21:36:03.262Z,4.07
2023-02-24T21:41:07.282Z,4.07
2023-02-24T21:46:09.081Z,4.00
2023-02-24T21:51:13.583Z,3.89
2023-02-24T21:56:18.366Z,3.87
2023-02-24T22:01:25.618Z,3.88
2023-02-24T22:06:31.265Z,3.90
2023-02-24T22:11:36.017Z,4.06
2023-02-24T22:16:38.143Z,4.08
2023-02-24T22:21:42.371Z,4.04
2023-02-24T22:26:44.370Z,3.98
2023-02-24T22:31:49.533Z,3.95
2023-02-24T22:36:51.372Z,3.92
2023-02-24T22:41:52.929Z,3.91
2023-02-24T22:46:54.533Z,3.93
2023-02-24T22:51:56.164Z,3.92
2023-02-24T22:56:57.639Z,4.04
2023-02-24T23:01:59.754Z,4.10
2023-02-24T23:07:02.280Z,4.19
2023-02-24T23:12:04.041Z,4.22
2023-02-24T23:17:05.620Z,4.19
2023-02-24T23:22:07.956Z,4.12
2023-02-24T23:27:09.864Z,4.01
2023-02-24T23:32:11.485Z,4.00
2023-02-24T23:37:14.380Z,3.98
2023-02-24T23:42:18.123Z,3.92
2023-02-24T23:47:19.653Z,3.83
2023-02-24T23:52:21.266Z,3.48
2023-02-24T23:57:23.058Z,3.23
